sensor_id;sensor_type;location;lat;lon;timestamp;temperature;humidity
56538;DHT22;42435;53.292;6.000;2023-03-03T00:02:07;2.80;80.80
56538;DHT22;42435;53.292;6.000;2023-03-03T00:04:33;2.70;80.80
56538;DHT22;42435;53.292;6.000;2023-03-03T00:06:58;2.70;80.60
56538;DHT22;42435;53.292;6.000;2023-03-03T00:09:24;2.70;80.40
56538;DHT22;42435;53.292;6.000;2023-03-03T00:11:53;2.60;80.30
56538;DHT22;42435;53.292;6.000;2023-03-03T00:14:29;2.50;80.10
56538;DHT22;42435;53.292;6.000;2023-03-03T00:16:56;2.40;80.00
56538;DHT22;42435;53.292;6.000;2023-03-03T00:19:22;2.40;79.90
56538;DHT22;42435;53.292;6.000;2023-03-03T00:21:49;2.30;79.90
56538;DHT22;42435;53.292;6.000;2023-03-03T00:24:23;2.20;79.80
56538;DHT22;42435;53.292;6.000;2023-03-03T00:26:54;2.10;79.70
56538;DHT22;42435;53.292;6.000;2023-03-03T00:31:52;2.00;79.70
56538;DHT22;42435;53.292;6.000;2023-03-03T00:36:45;1.90;79.70
56538;DHT22;42435;53.292;6.000;2023-03-03T00:41:47;1.70;79.70
56538;DHT22;42435;53.292;6.000;2023-03-03T00:44:38;1.60;79.70
56538;DHT22;42435;53.292;6.000;2023-03-03T00:47:26;1.60;79.70
56538;DHT22;42435;53.292;6.000;2023-03-03T00:49:55;1.50;79.60
56538;DHT22;42435;53.292;6.000;2023-03-03T00:52:26;1.50;79.60
56538;DHT22;42435;53.292;6.000;2023-03-03T00:54:53;1.40;79.70
56538;DHT22;42435;53.292;6.000;2023-03-03T00:57:18;1.30;79.70
56538;DHT22;42435;53.292;6.000;2023-03-03T00:59:44;1.30;79.70
56538;DHT22;42435;53.292;6.000;2023-03-03T01:02:10;1.30;79.80
56538;DHT22;42435;53.292;6.000;2023-03-03T01:04:35;1.20;79.80
56538;DHT22;42435;53.292;6.000;2023-03-03T01:07:01;1.20;79.90
56538;DHT22;42435;53.292;6.000;2023-03-03T01:09:27;1.10;79.90
56538;DHT22;42435;53.292;6.000;2023-03-03T01:11:52;1.10;79.90
56538;DHT22;42435;53.292;6.000;2023-03-03T01:14:19;1.10;79.90
56538;DHT22;42435;53.292;6.000;2023-03-03T01:16:44;1.00;79.80
56538;DHT22;42435;53.292;6.000;2023-03-03T01:19:10;1.00;79.80
56538;DHT22;42435;53.292;6.000;2023-03-03T01:21:35;1.00;79.80
56538;DHT22;42435;53.292;6.000;2023-03-03T01:24:01;1.00;79.80
56538;DHT22;42435;53.292;6.000;2023-03-03T01:26:27;0.90;79.80
56538;DHT22;42435;53.292;6.000;2023-03-03T01:28:52;1.00;79.80
56538;DHT22;42435;53.292;6.000;2023-03-03T01:31:18;0.90;79.70
56538;DHT22;42435;53.292;6.000;2023-03-03T01:33:43;0.90;79.80
56538;DHT22;42435;53.292;6.000;2023-03-03T01:36:09;0.90;79.80
56538;DHT22;42435;53.292;6.000;2023-03-03T01:38:35;0.80;79.90
56538;DHT22;42435;53.292;6.000;2023-03-03T01:41:01;0.80;80.00
56538;DHT22;42435;53.292;6.000;2023-03-03T01:43:29;0.80;80.00
56538;DHT22;42435;53.292;6.000;2023-03-03T01:48:28;0.80;80.20
56538;DHT22;42435;53.292;6.000;2023-03-03T01:51:06;0.80;80.20
56538;DHT22;42435;53.292;6.000;2023-03-03T01:53:46;0.80;80.20
56538;DHT22;42435;53.292;6.000;2023-03-03T01:56:13;0.80;80.20
56538;DHT22;42435;53.292;6.000;2023-03-03T01:58:43;0.70;80.20
56538;DHT22;42435;53.292;6.000;2023-03-03T02:01:29;0.70;80.00
56538;DHT22;42435;53.292;6.000;2023-03-03T02:03:56;0.70;80.10
56538;DHT22;42435;53.292;6.000;2023-03-03T02:06:24;0.70;80.00
56538;DHT22;42435;53.292;6.000;2023-03-03T02:09:28;0.60;80.00
56538;DHT22;42435;53.292;6.000;2023-03-03T02:11:59;0.60;80.10
56538;DHT22;42435;53.292;6.000;2023-03-03T02:14:27;0.60;80.00
56538;DHT22;42435;53.292;6.000;2023-03-03T02:16:52;0.60;80.00
56538;DHT22;42435;53.292;6.000;2023-03-03T02:22:00;0.50;79.90
56538;DHT22;42435;53.292;6.000;2023-03-03T02:24:43;0.50;79.90
56538;DHT22;42435;53.292;6.000;2023-03-03T02:27:10;0.50;80.00
56538;DHT22;42435;53.292;6.000;2023-03-03T02:29:38;0.40;80.10
56538;DHT22;42435;53.292;6.000;2023-03-03T02:32:04;0.40;80.10
56538;DHT22;42435;53.292;6.000;2023-03-03T02:34:29;0.40;80.10
56538;DHT22;42435;53.292;6.000;2023-03-03T02:36:55;0.40;80.20
56538;DHT22;42435;53.292;6.000;2023-03-03T02:39:25;0.40;80.20
56538;DHT22;42435;53.292;6.000;2023-03-03T02:41:55;0.40;80.20
56538;DHT22;42435;53.292;6.000;2023-03-03T02:44:25;0.40;80.10
56538;DHT22;42435;53.292;6.000;2023-03-03T02:46:52;0.40;80.10
56538;DHT22;42435;53.292;6.000;2023-03-03T02:49:22;0.40;80.10
56538;DHT22;42435;53.292;6.000;2023-03-03T02:51:49;0.40;80.10
56538;DHT22;42435;53.292;6.000;2023-03-03T02:54:16;0.40;80.10
56538;DHT22;42435;53.292;6.000;2023-03-03T02:56:43;0.40;80.00
56538;DHT22;42435;53.292;6.000;2023-03-03T02:59:09;0.40;80.00
56538;DHT22;42435;53.292;6.000;2023-03-03T03:01:35;0.40;80.00
56538;DHT22;42435;53.292;6.000;2023-03-03T03:04:11;0.40;80.00
56538;DHT22;42435;53.292;6.000;2023-03-03T03:06:37;0.40;80.10
56538;DHT22;42435;53.292;6.000;2023-03-03T03:09:04;0.40;80.10
56538;DHT22;42435;53.292;6.000;2023-03-03T03:11:30;0.30;80.10
56538;DHT22;42435;53.292;6.000;2023-03-03T03:13:56;0.30;80.10
56538;DHT22;42435;53.292;6.000;2023-03-03T03:16:22;0.30;80.10
56538;DHT22;42435;53.292;6.000;2023-03-03T03:18:47;0.30;80.20
56538;DHT22;42435;53.292;6.000;2023-03-03T03:21:15;0.30;80.20
56538;DHT22;42435;53.292;6.000;2023-03-03T03:23:40;0.30;80.20
56538;DHT22;42435;53.292;6.000;2023-03-03T03:26:07;0.30;80.30
56538;DHT22;42435;53.292;6.000;2023-03-03T03:28:32;0.30;80.40
56538;DHT22;42435;53.292;6.000;2023-03-03T03:30:58;0.30;80.40
56538;DHT22;42435;53.292;6.000;2023-03-03T03:33:24;0.40;80.40
56538;DHT22;42435;53.292;6.000;2023-03-03T03:35:50;0.30;80.30
56538;DHT22;42435;53.292;6.000;2023-03-03T03:38:16;0.30;80.40
56538;DHT22;42435;53.292;6.000;2023-03-03T03:40:42;0.40;80.30
56538;DHT22;42435;53.292;6.000;2023-03-03T03:43:08;0.30;80.40
56538;DHT22;42435;53.292;6.000;2023-03-03T03:45:33;0.40;80.50
56538;DHT22;42435;53.292;6.000;2023-03-03T03:47:59;0.30;80.40
56538;DHT22;42435;53.292;6.000;2023-03-03T03:50:25;0.40;80.30
56538;DHT22;42435;53.292;6.000;2023-03-03T03:52:50;0.30;80.30
56538;DHT22;42435;53.292;6.000;2023-03-03T03:55:16;0.30;80.30
56538;DHT22;42435;53.292;6.000;2023-03-03T03:57:42;0.40;80.30
56538;DHT22;42435;53.292;6.000;2023-03-03T04:00:09;0.30;80.20
56538;DHT22;42435;53.292;6.000;2023-03-03T04:02:35;0.30;80.20
56538;DHT22;42435;53.292;6.000;2023-03-03T04:05:01;0.30;80.30
56538;DHT22;42435;53.292;6.000;2023-03-03T04:07:27;0.40;80.30
56538;DHT22;42435;53.292;6.000;2023-03-03T04:09:52;0.30;80.30
56538;DHT22;42435;53.292;6.000;2023-03-03T04:12:18;0.30;80.30
56538;DHT22;42435;53.292;6.000;2023-03-03T04:14:44;0.30;80.30
56538;DHT22;42435;53.292;6.000;2023-03-03T04:17:16;0.30;80.30
56538;DHT22;42435;53.292;6.000;2023-03-03T04:19:42;0.40;80.30
56538;DHT22;42435;53.292;6.000;2023-03-03T04:22:07;0.30;80.20
56538;DHT22;42435;53.292;6.000;2023-03-03T04:24:33;0.30;80.20
56538;DHT22;42435;53.292;6.000;2023-03-03T04:26:58;0.40;80.20
56538;DHT22;42435;53.292;6.000;2023-03-03T04:29:25;0.30;80.20
56538;DHT22;42435;53.292;6.000;2023-03-03T04:31:50;0.30;80.20
56538;DHT22;42435;53.292;6.000;2023-03-03T04:34:16;0.30;80.10
56538;DHT22;42435;53.292;6.000;2023-03-03T04:36:42;0.30;80.10
56538;DHT22;42435;53.292;6.000;2023-03-03T04:39:07;0.30;80.10
56538;DHT22;42435;53.292;6.000;2023-03-03T04:41:33;0.30;80.10
56538;DHT22;42435;53.292;6.000;2023-03-03T04:43:58;0.30;80.30
56538;DHT22;42435;53.292;6.000;2023-03-03T04:46:24;0.30;80.30
56538;DHT22;42435;53.292;6.000;2023-03-03T04:48:49;0.30;80.30
56538;DHT22;42435;53.292;6.000;2023-03-03T04:51:15;0.30;80.30
56538;DHT22;42435;53.292;6.000;2023-03-03T04:53:41;0.30;80.30
56538;DHT22;42435;53.292;6.000;2023-03-03T04:56:07;0.20;80.30
56538;DHT22;42435;53.292;6.000;2023-03-03T04:58:32;0.20;80.30
56538;DHT22;42435;53.292;6.000;2023-03-03T05:00:58;0.20;80.30
56538;DHT22;42435;53.292;6.000;2023-03-03T05:03:24;0.20;80.40
56538;DHT22;42435;53.292;6.000;2023-03-03T05:05:51;0.20;80.30
56538;DHT22;42435;53.292;6.000;2023-03-03T05:08:17;0.20;80.30
56538;DHT22;42435;53.292;6.000;2023-03-03T05:10:42;0.20;80.40
56538;DHT22;42435;53.292;6.000;2023-03-03T05:13:08;0.10;80.30
56538;DHT22;42435;53.292;6.000;2023-03-03T05:15:34;0.10;80.40
56538;DHT22;42435;53.292;6.000;2023-03-03T05:18:00;0.10;80.40
56538;DHT22;42435;53.292;6.000;2023-03-03T05:20:26;0.10;80.30
56538;DHT22;42435;53.292;6.000;2023-03-03T05:22:51;0.10;80.30
56538;DHT22;42435;53.292;6.000;2023-03-03T05:25:19;0.10;80.30
56538;DHT22;42435;53.292;6.000;2023-03-03T05:27:45;0.10;80.40
56538;DHT22;42435;53.292;6.000;2023-03-03T05:30:11;0.10;80.40
56538;DHT22;42435;53.292;6.000;2023-03-03T05:32:37;0.10;80.40
56538;DHT22;42435;53.292;6.000;2023-03-03T05:35:04;0.00;80.50
56538;DHT22;42435;53.292;6.000;2023-03-03T05:37:29;0.00;80.50
56538;DHT22;42435;53.292;6.000;2023-03-03T05:39:55;0.00;80.50
56538;DHT22;42435;53.292;6.000;2023-03-03T05:42:21;0.00;80.50
56538;DHT22;42435;53.292;6.000;2023-03-03T05:44:47;0.00;80.50
56538;DHT22;42435;53.292;6.000;2023-03-03T05:47:12;0.00;80.50
56538;DHT22;42435;53.292;6.000;2023-03-03T05:49:38;0.00;80.50
56538;DHT22;42435;53.292;6.000;2023-03-03T05:52:04;0.00;80.70
56538;DHT22;42435;53.292;6.000;2023-03-03T05:54:30;0.00;80.70
56538;DHT22;42435;53.292;6.000;2023-03-03T05:56:56;0.00;80.70
56538;DHT22;42435;53.292;6.000;2023-03-03T05:59:23;0.00;80.70
56538;DHT22;42435;53.292;6.000;2023-03-03T06:01:49;0.00;80.60
56538;DHT22;42435;53.292;6.000;2023-03-03T06:04:14;0.00;80.70
56538;DHT22;42435;53.292;6.000;2023-03-03T06:06:40;0.00;80.70
56538;DHT22;42435;53.292;6.000;2023-03-03T06:09:05;0.00;80.70
56538;DHT22;42435;53.292;6.000;2023-03-03T06:11:31;0.00;80.70
56538;DHT22;42435;53.292;6.000;2023-03-03T06:13:57;0.00;80.70
56538;DHT22;42435;53.292;6.000;2023-03-03T06:16:22;0.00;80.60
56538;DHT22;42435;53.292;6.000;2023-03-03T06:18:48;0.00;80.60
56538;DHT22;42435;53.292;6.000;2023-03-03T06:21:13;0.00;80.60
56538;DHT22;42435;53.292;6.000;2023-03-03T06:23:40;0.00;80.60
56538;DHT22;42435;53.292;6.000;2023-03-03T06:26:05;0.00;80.70
56538;DHT22;42435;53.292;6.000;2023-03-03T06:28:31;0.00;80.70
56538;DHT22;42435;53.292;6.000;2023-03-03T06:30:56;0.00;80.60
56538;DHT22;42435;53.292;6.000;2023-03-03T06:33:22;0.00;80.60
56538;DHT22;42435;53.292;6.000;2023-03-03T06:35:50;0.00;80.70
56538;DHT22;42435;53.292;6.000;2023-03-03T06:38:16;0.00;80.80
56538;DHT22;42435;53.292;6.000;2023-03-03T06:40:41;0.00;80.90
56538;DHT22;42435;53.292;6.000;2023-03-03T06:43:07;0.00;80.90
56538;DHT22;42435;53.292;6.000;2023-03-03T06:45:34;0.00;81.00
56538;DHT22;42435;53.292;6.000;2023-03-03T06:47:59;0.00;81.10
56538;DHT22;42435;53.292;6.000;2023-03-03T06:50:26;0.10;81.10
56538;DHT22;42435;53.292;6.000;2023-03-03T06:53:01;0.10;81.20
56538;DHT22;42435;53.292;6.000;2023-03-03T06:55:29;0.20;81.30
56538;DHT22;42435;53.292;6.000;2023-03-03T06:57:55;0.20;81.30
56538;DHT22;42435;53.292;6.000;2023-03-03T07:00:25;0.30;81.40
56538;DHT22;42435;53.292;6.000;2023-03-03T07:03:00;0.30;81.40
56538;DHT22;42435;53.292;6.000;2023-03-03T07:05:28;0.30;81.40
56538;DHT22;42435;53.292;6.000;2023-03-03T07:07:57;0.40;81.40
56538;DHT22;42435;53.292;6.000;2023-03-03T07:10:27;0.50;81.50
56538;DHT22;42435;53.292;6.000;2023-03-03T07:12:57;0.60;81.60
56538;DHT22;42435;53.292;6.000;2023-03-03T07:15:34;0.60;81.60
56538;DHT22;42435;53.292;6.000;2023-03-03T07:18:00;0.60;81.70
56538;DHT22;42435;53.292;6.000;2023-03-03T07:20:38;0.70;81.60
56538;DHT22;42435;53.292;6.000;2023-03-03T07:23:20;0.80;81.80
56538;DHT22;42435;53.292;6.000;2023-03-03T07:25:47;0.90;81.80
56538;DHT22;42435;53.292;6.000;2023-03-03T07:28:26;1.00;81.80
56538;DHT22;42435;53.292;6.000;2023-03-03T07:30:53;1.00;81.80
56538;DHT22;42435;53.292;6.000;2023-03-03T07:33:33;1.10;81.90
56538;DHT22;42435;53.292;6.000;2023-03-03T07:36:01;1.20;82.30
56538;DHT22;42435;53.292;6.000;2023-03-03T07:38:34;1.30;82.20
56538;DHT22;42435;53.292;6.000;2023-03-03T07:41:04;1.40;82.40
56538;DHT22;42435;53.292;6.000;2023-03-03T07:43:35;1.50;82.40
56538;DHT22;42435;53.292;6.000;2023-03-03T07:46:19;1.70;82.70
56538;DHT22;42435;53.292;6.000;2023-03-03T07:48:47;1.80;83.10
56538;DHT22;42435;53.292;6.000;2023-03-03T07:51:28;2.00;83.00
56538;DHT22;42435;53.292;6.000;2023-03-03T07:56:35;2.40;83.40
56538;DHT22;42435;53.292;6.000;2023-03-03T07:59:21;2.50;83.40
56538;DHT22;42435;53.292;6.000;2023-03-03T08:01:52;2.80;83.90
56538;DHT22;42435;53.292;6.000;2023-03-03T08:04:23;3.10;83.90
56538;DHT22;42435;53.292;6.000;2023-03-03T08:06:58;3.40;84.10
56538;DHT22;42435;53.292;6.000;2023-03-03T08:09:29;3.80;84.30
56538;DHT22;42435;53.292;6.000;2023-03-03T08:14:26;4.50;83.40
56538;DHT22;42435;53.292;6.000;2023-03-03T08:16:55;4.90;83.30
56538;DHT22;42435;53.292;6.000;2023-03-03T08:19:21;5.20;82.90
56538;DHT22;42435;53.292;6.000;2023-03-03T08:21:47;5.40;82.50
56538;DHT22;42435;53.292;6.000;2023-03-03T08:24:12;5.60;82.00
56538;DHT22;42435;53.292;6.000;2023-03-03T08:26:38;5.80;81.60
56538;DHT22;42435;53.292;6.000;2023-03-03T08:29:03;5.90;81.10
56538;DHT22;42435;53.292;6.000;2023-03-03T08:31:29;6.10;80.70
56538;DHT22;42435;53.292;6.000;2023-03-03T08:33:55;6.20;80.50
56538;DHT22;42435;53.292;6.000;2023-03-03T08:36:20;6.40;80.30
56538;DHT22;42435;53.292;6.000;2023-03-03T08:38:46;6.50;80.20
56538;DHT22;42435;53.292;6.000;2023-03-03T08:41:12;6.60;80.00
56538;DHT22;42435;53.292;6.000;2023-03-03T08:43:38;6.70;79.80
56538;DHT22;42435;53.292;6.000;2023-03-03T08:46:04;6.80;79.50
56538;DHT22;42435;53.292;6.000;2023-03-03T08:48:31;6.90;79.20
56538;DHT22;42435;53.292;6.000;2023-03-03T08:50:57;7.00;78.80
56538;DHT22;42435;53.292;6.000;2023-03-03T08:53:23;7.10;78.40
56538;DHT22;42435;53.292;6.000;2023-03-03T08:55:49;7.20;77.90
56538;DHT22;42435;53.292;6.000;2023-03-03T08:58:17;7.20;77.60
56538;DHT22;42435;53.292;6.000;2023-03-03T09:00:43;7.30;77.50
56538;DHT22;42435;53.292;6.000;2023-03-03T09:03:08;7.40;77.20
56538;DHT22;42435;53.292;6.000;2023-03-03T09:05:36;7.30;76.70
56538;DHT22;42435;53.292;6.000;2023-03-03T09:08:02;7.40;75.80
56538;DHT22;42435;53.292;6.000;2023-03-03T09:10:28;7.40;75.30
56538;DHT22;42435;53.292;6.000;2023-03-03T09:12:57;7.40;75.30
56538;DHT22;42435;53.292;6.000;2023-03-03T09:15:34;7.40;75.10
56538;DHT22;42435;53.292;6.000;2023-03-03T09:18:19;7.40;74.40
56538;DHT22;42435;53.292;6.000;2023-03-03T09:20:49;7.40;74.20
56538;DHT22;42435;53.292;6.000;2023-03-03T09:23:36;7.50;74.30
56538;DHT22;42435;53.292;6.000;2023-03-03T09:26:24;7.50;74.10
56538;DHT22;42435;53.292;6.000;2023-03-03T09:31:34;7.60;74.50
56538;DHT22;42435;53.292;6.000;2023-03-03T09:34:23;7.70;73.40
56538;DHT22;42435;53.292;6.000;2023-03-03T09:36:52;7.70;72.70
56538;DHT22;42435;53.292;6.000;2023-03-03T09:39:20;7.70;72.10
56538;DHT22;42435;53.292;6.000;2023-03-03T09:45:01;7.70;71.70
56538;DHT22;42435;53.292;6.000;2023-03-03T10:09:37;7.90;69.10
56538;DHT22;42435;53.292;6.000;2023-03-03T10:12:28;8.00;68.90
56538;DHT22;42435;53.292;6.000;2023-03-03T10:17:51;8.30;68.20
56538;DHT22;42435;53.292;6.000;2023-03-03T10:20:53;8.40;68.30
56538;DHT22;42435;53.292;6.000;2023-03-03T10:29:07;8.80;67.20
56538;DHT22;42435;53.292;6.000;2023-03-03T10:37:12;9.00;66.60
56538;DHT22;42435;53.292;6.000;2023-03-03T10:45:55;9.20;66.20
56538;DHT22;42435;53.292;6.000;2023-03-03T10:48:50;9.30;65.50
56538;DHT22;42435;53.292;6.000;2023-03-03T10:57:30;9.40;65.10
56538;DHT22;42435;53.292;6.000;2023-03-03T11:05:49;9.50;63.80
56538;DHT22;42435;53.292;6.000;2023-03-03T11:08:27;9.60;63.90
56538;DHT22;42435;53.292;6.000;2023-03-03T11:21:54;9.90;62.30
56538;DHT22;42435;53.292;6.000;2023-03-03T11:24:44;9.90;62.70
56538;DHT22;42435;53.292;6.000;2023-03-03T11:36:36;10.20;62.90
56538;DHT22;42435;53.292;6.000;2023-03-03T11:39:16;10.30;62.80
56538;DHT22;42435;53.292;6.000;2023-03-03T11:44:45;10.40;62.30
56538;DHT22;42435;53.292;6.000;2023-03-03T11:50:15;10.50;61.90
56538;DHT22;42435;53.292;6.000;2023-03-03T11:52:51;10.50;62.00
56538;DHT22;42435;53.292;6.000;2023-03-03T11:55:32;10.50;61.60
56538;DHT22;42435;53.292;6.000;2023-03-03T12:05:38;10.60;61.90
56538;DHT22;42435;53.292;6.000;2023-03-03T12:14:01;10.60;61.40
56538;DHT22;42435;53.292;6.000;2023-03-03T12:16:55;10.70;61.10
56538;DHT22;42435;53.292;6.000;2023-03-03T12:19:30;10.70;60.70
56538;DHT22;42435;53.292;6.000;2023-03-03T12:22:20;10.70;60.80
56538;DHT22;42435;53.292;6.000;2023-03-03T12:35:57;10.80;60.20
56538;DHT22;42435;53.292;6.000;2023-03-03T12:38:50;10.70;59.40
56538;DHT22;42435;53.292;6.000;2023-03-03T12:41:31;10.70;59.10
56538;DHT22;42435;53.292;6.000;2023-03-03T12:44:14;10.60;59.40
56538;DHT22;42435;53.292;6.000;2023-03-03T12:49:51;10.60;60.00
56538;DHT22;42435;53.292;6.000;2023-03-03T12:58:36;10.00;59.50
56538;DHT22;42435;53.292;6.000;2023-03-03T13:17:14;9.50;61.90
56538;DHT22;42435;53.292;6.000;2023-03-03T13:19:57;9.50;62.20
56538;DHT22;42435;53.292;6.000;2023-03-03T13:22:41;9.50;62.40
56538;DHT22;42435;53.292;6.000;2023-03-03T13:31:20;9.60;62.70
56538;DHT22;42435;53.292;6.000;2023-03-03T13:33:53;9.60;62.50
56538;DHT22;42435;53.292;6.000;2023-03-03T13:36:19;9.60;62.50
56538;DHT22;42435;53.292;6.000;2023-03-03T13:38:48;9.60;62.60
56538;DHT22;42435;53.292;6.000;2023-03-03T13:41:22;9.60;62.60
56538;DHT22;42435;53.292;6.000;2023-03-03T13:43:57;9.50;62.50
56538;DHT22;42435;53.292;6.000;2023-03-03T13:52:04;9.50;63.30
56538;DHT22;42435;53.292;6.000;2023-03-03T13:54:57;9.40;63.60
56538;DHT22;42435;53.292;6.000;2023-03-03T13:57:46;9.40;63.80
56538;DHT22;42435;53.292;6.000;2023-03-03T14:00:22;9.30;63.80
56538;DHT22;42435;53.292;6.000;2023-03-03T14:03:21;9.30;63.80
56538;DHT22;42435;53.292;6.000;2023-03-03T14:06:03;9.30;63.90
56538;DHT22;42435;53.292;6.000;2023-03-03T14:11:39;9.40;63.90
56538;DHT22;42435;53.292;6.000;2023-03-03T14:17:06;9.10;63.60
56538;DHT22;42435;53.292;6.000;2023-03-03T14:19:39;9.10;64.30
56538;DHT22;42435;53.292;6.000;2023-03-03T14:22:18;9.10;64.50
56538;DHT22;42435;53.292;6.000;2023-03-03T14:25:09;9.10;64.40
56538;DHT22;42435;53.292;6.000;2023-03-03T14:30:38;9.00;64.70
56538;DHT22;42435;53.292;6.000;2023-03-03T14:33:17;9.00;65.20
56538;DHT22;42435;53.292;6.000;2023-03-03T14:36:10;9.00;65.50
56538;DHT22;42435;53.292;6.000;2023-03-03T14:38:39;9.10;65.70
56538;DHT22;42435;53.292;6.000;2023-03-03T14:43:42;9.20;65.70
56538;DHT22;42435;53.292;6.000;2023-03-03T14:46:33;9.20;65.80
56538;DHT22;42435;53.292;6.000;2023-03-03T14:49:03;9.20;65.90
56538;DHT22;42435;53.292;6.000;2023-03-03T14:51:48;9.30;65.60
56538;DHT22;42435;53.292;6.000;2023-03-03T14:54:24;9.30;65.20
56538;DHT22;42435;53.292;6.000;2023-03-03T14:56:58;9.30;65.00
56538;DHT22;42435;53.292;6.000;2023-03-03T14:59:25;9.20;65.10
56538;DHT22;42435;53.292;6.000;2023-03-03T15:04:39;9.20;65.00
56538;DHT22;42435;53.292;6.000;2023-03-03T15:07:35;9.20;65.10
56538;DHT22;42435;53.292;6.000;2023-03-03T15:10:02;9.20;65.20
56538;DHT22;42435;53.292;6.000;2023-03-03T15:17:39;9.10;65.30
56538;DHT22;42435;53.292;6.000;2023-03-03T15:26:09;9.00;66.30
56538;DHT22;42435;53.292;6.000;2023-03-03T15:31:27;9.00;66.70
56538;DHT22;42435;53.292;6.000;2023-03-03T15:34:04;9.00;66.80
56538;DHT22;42435;53.292;6.000;2023-03-03T15:36:50;9.00;66.90
56538;DHT22;42435;53.292;6.000;2023-03-03T15:42:01;9.00;67.20
56538;DHT22;42435;53.292;6.000;2023-03-03T15:47:40;9.00;67.20
56538;DHT22;42435;53.292;6.000;2023-03-03T15:55:51;8.90;67.20
56538;DHT22;42435;53.292;6.000;2023-03-03T15:58:23;8.80;67.40
56538;DHT22;42435;53.292;6.000;2023-03-03T16:01:19;8.70;67.60
56538;DHT22;42435;53.292;6.000;2023-03-03T16:03:54;8.70;67.70
56538;DHT22;42435;53.292;6.000;2023-03-03T16:12:17;8.60;68.20
56538;DHT22;42435;53.292;6.000;2023-03-03T16:20:43;8.50;67.80
56538;DHT22;42435;53.292;6.000;2023-03-03T16:23:38;8.40;68.00
56538;DHT22;42435;53.292;6.000;2023-03-03T16:29:06;8.30;68.20
56538;DHT22;42435;53.292;6.000;2023-03-03T16:31:35;8.30;68.20
56538;DHT22;42435;53.292;6.000;2023-03-03T16:39:37;8.20;68.70
56538;DHT22;42435;53.292;6.000;2023-03-03T16:50:49;8.00;69.30
56538;DHT22;42435;53.292;6.000;2023-03-03T16:58:58;7.90;69.10
56538;DHT22;42435;53.292;6.000;2023-03-03T17:01:29;7.80;69.20
56538;DHT22;42435;53.292;6.000;2023-03-03T17:04:21;7.80;69.20
56538;DHT22;42435;53.292;6.000;2023-03-03T17:07:02;7.70;69.50
56538;DHT22;42435;53.292;6.000;2023-03-03T17:09:44;7.70;69.60
56538;DHT22;42435;53.292;6.000;2023-03-03T17:17:52;7.70;70.30
56538;DHT22;42435;53.292;6.000;2023-03-03T17:20:46;7.60;70.40
56538;DHT22;42435;53.292;6.000;2023-03-03T17:31:42;7.60;71.00
56538;DHT22;42435;53.292;6.000;2023-03-03T17:37:16;7.60;71.30
56538;DHT22;42435;53.292;6.000;2023-03-03T17:45:20;7.60;71.60
56538;DHT22;42435;53.292;6.000;2023-03-03T18:01:29;7.50;72.00
56538;DHT22;42435;53.292;6.000;2023-03-03T18:04:20;7.60;71.90
56538;DHT22;42435;53.292;6.000;2023-03-03T18:18:09;7.50;72.20
56538;DHT22;42435;53.292;6.000;2023-03-03T18:23:38;7.40;72.40
56538;DHT22;42435;53.292;6.000;2023-03-03T18:26:33;7.40;72.30
56538;DHT22;42435;53.292;6.000;2023-03-03T18:29:20;7.40;72.30
56538;DHT22;42435;53.292;6.000;2023-03-03T18:36:53;7.40;72.00
56538;DHT22;42435;53.292;6.000;2023-03-03T18:39:48;7.40;72.00
56538;DHT22;42435;53.292;6.000;2023-03-03T18:44:40;7.40;71.80
56538;DHT22;42435;53.292;6.000;2023-03-03T18:47:10;7.40;71.70
56538;DHT22;42435;53.292;6.000;2023-03-03T18:49:50;7.40;71.50
56538;DHT22;42435;53.292;6.000;2023-03-03T18:52:32;7.30;71.50
56538;DHT22;42435;53.292;6.000;2023-03-03T18:55:20;7.30;71.50
56538;DHT22;42435;53.292;6.000;2023-03-03T18:58:27;7.30;71.60
56538;DHT22;42435;53.292;6.000;2023-03-03T19:00:53;7.30;71.60
56538;DHT22;42435;53.292;6.000;2023-03-03T19:06:04;7.30;71.40
56538;DHT22;42435;53.292;6.000;2023-03-03T19:08:52;7.30;71.40
56538;DHT22;42435;53.292;6.000;2023-03-03T19:11:40;7.30;71.40
56538;DHT22;42435;53.292;6.000;2023-03-03T19:16:50;7.30;71.40
56538;DHT22;42435;53.292;6.000;2023-03-03T19:19:18;7.30;71.50
56538;DHT22;42435;53.292;6.000;2023-03-03T19:21:51;7.30;71.60
56538;DHT22;42435;53.292;6.000;2023-03-03T19:24:36;7.30;71.60
56538;DHT22;42435;53.292;6.000;2023-03-03T19:32:34;7.20;71.10
56538;DHT22;42435;53.292;6.000;2023-03-03T19:39:01;7.20;71.20
56538;DHT22;42435;53.292;6.000;2023-03-03T19:58:04;7.30;71.30
56538;DHT22;42435;53.292;6.000;2023-03-03T20:00:41;7.30;71.50
56538;DHT22;42435;53.292;6.000;2023-03-03T20:06:18;7.30;71.50
56538;DHT22;42435;53.292;6.000;2023-03-03T20:19:55;7.30;71.00
56538;DHT22;42435;53.292;6.000;2023-03-03T20:25:27;7.30;70.80
56538;DHT22;42435;53.292;6.000;2023-03-03T20:28:05;7.30;70.80
56538;DHT22;42435;53.292;6.000;2023-03-03T20:31:01;7.30;70.70
56538;DHT22;42435;53.292;6.000;2023-03-03T20:33:59;7.30;70.90
56538;DHT22;42435;53.292;6.000;2023-03-03T20:36:50;7.30;71.00
56538;DHT22;42435;53.292;6.000;2023-03-03T20:42:21;7.30;71.40
56538;DHT22;42435;53.292;6.000;2023-03-03T21:04:29;7.30;71.60
56538;DHT22;42435;53.292;6.000;2023-03-03T21:06:56;7.30;71.60
56538;DHT22;42435;53.292;6.000;2023-03-03T21:11:49;7.30;71.60
56538;DHT22;42435;53.292;6.000;2023-03-03T21:14:24;7.30;71.70
56538;DHT22;42435;53.292;6.000;2023-03-03T21:16:52;7.30;71.90
56538;DHT22;42435;53.292;6.000;2023-03-03T21:19:29;7.30;71.90
56538;DHT22;42435;53.292;6.000;2023-03-03T21:21:56;7.30;71.90
56538;DHT22;42435;53.292;6.000;2023-03-03T21:24:22;7.30;71.90
56538;DHT22;42435;53.292;6.000;2023-03-03T21:26:59;7.30;71.90
56538;DHT22;42435;53.292;6.000;2023-03-03T21:29:33;7.30;71.90
56538;DHT22;42435;53.292;6.000;2023-03-03T21:32:01;7.30;71.90
56538;DHT22;42435;53.292;6.000;2023-03-03T21:34:35;7.30;71.90
56538;DHT22;42435;53.292;6.000;2023-03-03T21:37:03;7.30;71.90
56538;DHT22;42435;53.292;6.000;2023-03-03T21:39:41;7.30;71.80
56538;DHT22;42435;53.292;6.000;2023-03-03T21:42:24;7.30;71.80
56538;DHT22;42435;53.292;6.000;2023-03-03T21:44:53;7.30;71.80
56538;DHT22;42435;53.292;6.000;2023-03-03T21:47:26;7.20;71.80
56538;DHT22;42435;53.292;6.000;2023-03-03T21:49:52;7.30;71.80
56538;DHT22;42435;53.292;6.000;2023-03-03T21:52:19;7.30;71.70
56538;DHT22;42435;53.292;6.000;2023-03-03T21:54:47;7.20;71.70
56538;DHT22;42435;53.292;6.000;2023-03-03T21:57:13;7.20;71.60
56538;DHT22;42435;53.292;6.000;2023-03-03T21:59:39;7.30;71.50
56538;DHT22;42435;53.292;6.000;2023-03-03T22:02:05;7.30;71.50
56538;DHT22;42435;53.292;6.000;2023-03-03T22:04:31;7.30;71.50
56538;DHT22;42435;53.292;6.000;2023-03-03T22:06:58;7.30;71.30
56538;DHT22;42435;53.292;6.000;2023-03-03T22:09:24;7.30;71.40
56538;DHT22;42435;53.292;6.000;2023-03-03T22:11:50;7.30;71.40
56538;DHT22;42435;53.292;6.000;2023-03-03T22:14:16;7.30;71.40
56538;DHT22;42435;53.292;6.000;2023-03-03T22:16:41;7.30;71.30
56538;DHT22;42435;53.292;6.000;2023-03-03T22:19:07;7.30;71.00
56538;DHT22;42435;53.292;6.000;2023-03-03T22:21:37;7.30;70.90
56538;DHT22;42435;53.292;6.000;2023-03-03T22:24:04;7.30;71.10